Time;durP1;ratioP1;P1;durP2;ratioP2;P2;SDS_P1;SDS_P2;PMS_P1;PMS_P2;Temp;Humidity;BMP_temperature;BMP_pressure;BME280_temperature;BME280_humidity;BME280_pressure;Samples;Min_cycle;Max_cycle;Signal;HPM_P1;HPM_P2
2021/09/04 00:02:22;;;;;;;15.20;5.20;;;;;;;13.21;63.78;99911.05;1720568;83;21244;-78
2021/09/04 00:05:29;;;;;;;15.48;6.20;;;;;;;13.25;63.84;99915.66;1721249;83;21327;-78
2021/09/04 00:08:35;;;;;;;13.72;6.20;;;;;;;13.28;63.71;99907.02;1721510;83;21201;-78
2021/09/04 00:11:42;;;;;;;14.58;6.15;;;;;;;13.29;63.70;99906.80;1721457;83;21177;-78
2021/09/04 00:14:48;;;;;;;22.62;6.35;;;;;;;13.32;63.64;99906.09;1720080;83;21204;-78
2021/09/04 00:17:55;;;;;;;26.68;7.03;;;;;;;13.34;63.58;99900.70;1719416;83;21227;-78
2021/09/04 00:21:00;;;;;;;17.73;7.12;;;;;;;13.38;63.54;99908.86;1707024;84;21831;-78
2021/09/04 00:24:06;;;;;;;18.10;6.72;;;;;;;13.42;63.58;99907.92;1701539;84;21784;-78
2021/09/04 00:27:13;;;;;;;16.87;6.20;;;;;;;13.44;63.54;99905.28;1705110;84;21186;-78
2021/09/04 00:30:19;;;;;;;26.48;7.12;;;;;;;13.46;63.49;99906.47;1703003;84;21316;-78
2021/09/04 00:33:24;;;;;;;15.05;6.90;;;;;;;13.49;63.52;99904.14;1705403;84;21882;-78
2021/09/04 00:36:30;;;;;;;18.23;6.75;;;;;;;13.53;63.41;99904.05;1702265;84;21344;-78
2021/09/04 00:39:35;;;;;;;14.30;6.53;;;;;;;13.54;63.38;99900.77;1706635;84;21295;-78
2021/09/04 00:42:41;;;;;;;16.17;6.78;;;;;;;13.55;63.36;99901.97;1702953;84;21221;-78
2021/09/04 00:45:47;;;;;;;20.02;7.28;;;;;;;13.55;63.37;99895.63;1706596;84;21347;-78
2021/09/04 00:48:52;;;;;;;17.42;6.97;;;;;;;13.53;63.51;99887.56;1701444;84;21784;-77
2021/09/04 00:51:58;;;;;;;20.17;7.25;;;;;;;13.54;63.63;99889.78;1705338;84;21366;-78
2021/09/04 00:55:04;;;;;;;10.93;6.17;;;;;;;13.53;63.61;99886.19;1702956;84;21618;-78
2021/09/04 00:58:09;;;;;;;17.80;7.00;;;;;;;13.54;63.64;99885.66;1699690;84;21315;-78
2021/09/04 01:01:14;;;;;;;18.40;7.55;;;;;;;13.48;63.71;99879.09;1718082;83;21354;-78
2021/09/04 01:04:25;;;;;;;17.23;6.47;;;;;;;13.43;63.82;99877.49;1705120;84;21359;-78
2021/09/04 01:07:29;;;;;;;18.67;7.65;;;;;;;13.40;63.95;99882.55;1701894;84;21371;-78
2021/09/04 01:10:35;;;;;;;16.97;7.08;;;;;;;13.32;64.11;99879.47;1706647;84;21367;-78
2021/09/04 01:13:40;;;;;;;16.52;6.58;;;;;;;13.26;64.22;99877.52;1702803;84;21309;-78
2021/09/04 01:16:48;;;;;;;18.60;6.85;;;;;;;13.21;64.37;99875.88;1706288;84;21343;-78
2021/09/04 01:19:53;;;;;;;20.62;6.87;;;;;;;13.14;64.51;99866.78;1702351;84;21343;-78
2021/09/04 01:23:00;;;;;;;16.55;6.53;;;;;;;13.07;64.76;99870.00;1705104;84;21233;-78
2021/09/04 01:26:11;;;;;;;22.80;7.20;;;;;;;12.99;65.04;99866.91;1702879;84;21198;-78
2021/09/04 01:29:17;;;;;;;27.13;6.62;;;;;;;12.90;65.30;99863.48;1699565;84;21320;-78
2021/09/04 01:32:22;;;;;;;30.45;7.80;;;;;;;12.80;65.62;99860.26;1718860;83;21314;-78
2021/09/04 01:35:31;;;;;;;20.82;7.90;;;;;;;12.72;65.98;99867.27;1699440;84;21332;-78
2021/09/04 01:38:36;;;;;;;22.85;7.95;;;;;;;12.64;66.34;99864.67;1718969;83;21429;-78
2021/09/04 01:41:42;;;;;;;15.25;6.65;;;;;;;12.53;66.69;99869.67;1705268;84;21300;-78
2021/09/04 01:44:48;;;;;;;15.63;6.60;;;;;;;12.46;67.01;99863.27;1702955;84;21320;-78
2021/09/04 01:47:54;;;;;;;14.23;6.90;;;;;;;12.41;67.34;99859.44;1705874;84;21335;-77
2021/09/04 01:50:59;;;;;;;14.23;6.72;;;;;;;12.33;67.76;99852.72;1702915;84;21244;-78
2021/09/04 01:54:05;;;;;;;20.17;6.30;;;;;;;12.27;68.03;99868.08;1706623;84;21715;-77
2021/09/04 01:57:11;;;;;;;14.25;6.25;;;;;;;12.22;68.30;99863.19;1702586;84;21349;-78
2021/09/04 02:00:21;;;;;;;13.83;5.92;;;;;;;12.17;68.60;99859.34;1706562;84;21256;-78
2021/09/04 02:03:26;;;;;;;11.83;5.72;;;;;;;12.11;68.91;99859.62;1702676;84;21348;-78
2021/09/04 02:06:32;;;;;;;15.00;6.08;;;;;;;12.03;69.21;99855.11;1706621;84;21310;-78
2021/09/04 02:09:46;;;;;;;14.75;6.45;;;;;;;12.03;69.52;99851.00;1858495;76;22182;-78
2021/09/04 02:12:52;;;;;;;13.85;6.78;;;;;;;11.97;69.65;99848.21;1750502;81;21835;-78
2021/09/04 02:15:58;;;;;;;18.30;6.78;;;;;;;11.93;69.86;99854.59;1737457;82;22203;-78
2021/09/04 02:19:07;;;;;;;17.85;6.75;;;;;;;11.90;70.04;99850.02;1750571;82;21793;-78
2021/09/04 02:22:14;;;;;;;16.87;6.85;;;;;;;11.87;70.20;99849.91;1736212;82;21323;-78
2021/09/04 02:25:19;;;;;;;15.85;7.67;;;;;;;11.83;70.36;99845.86;1751657;82;21275;-77
2021/09/04 02:28:26;;;;;;;16.75;6.62;;;;;;;11.77;70.56;99848.84;1736227;82;21202;-77
2021/09/04 02:31:30;;;;;;;14.58;6.58;;;;;;;11.71;70.83;99844.11;1751153;81;21305;-78
2021/09/04 02:34:36;;;;;;;17.90;6.90;;;;;;;11.66;71.09;99845.22;1737623;82;21280;-78
2021/09/04 02:37:42;;;;;;;14.25;7.05;;;;;;;11.60;71.35;99835.58;1750253;81;21278;-78
2021/09/04 02:40:47;;;;;;;21.93;6.92;;;;;;;11.52;71.54;99836.02;1736256;82;21170;-78
2021/09/04 02:43:55;;;;;;;14.50;6.30;;;;;;;11.46;71.77;99840.91;1751549;82;21149;-78
2021/09/04 02:47:03;;;;;;;17.15;6.35;;;;;;;11.41;72.04;99843.91;1736167;82;21363;-78
2021/09/04 02:50:10;;;;;;;14.38;7.12;;;;;;;11.34;72.23;99836.99;1751741;82;21805;-77
2021/09/04 02:53:15;;;;;;;13.70;7.03;;;;;;;11.26;72.56;99827.52;1737708;82;21248;-77
2021/09/04 02:56:21;;;;;;;11.83;6.87;;;;;;;11.19;72.92;99832.89;1751701;81;21302;-77
2021/09/04 02:59:27;;;;;;;15.20;7.35;;;;;;;11.13;73.24;99832.83;1737710;82;21307;-77
2021/09/04 03:02:32;;;;;;;12.70;6.62;;;;;;;11.09;73.53;99841.92;1750602;81;21314;-78
2021/09/04 03:05:38;;;;;;;15.80;6.58;;;;;;;11.12;73.82;99846.19;1736045;82;21189;-78
2021/09/04 03:08:44;;;;;;;14.20;6.72;;;;;;;11.11;74.04;99841.23;1749816;82;21288;-78
2021/09/04 03:11:49;;;;;;;15.18;6.47;;;;;;;11.11;74.23;99840.39;1725926;83;21928;-78
2021/09/04 03:14:54;;;;;;;16.67;6.58;;;;;;;11.10;74.44;99838.14;1742235;82;21338;-77
2021/09/04 03:18:00;;;;;;;15.25;5.87;;;;;;;11.12;74.59;99841.55;1726138;83;21320;-78
2021/09/04 03:21:05;;;;;;;13.45;6.12;;;;;;;11.15;74.74;99848.52;1742975;81;21369;-78
2021/09/04 03:24:12;;;;;;;17.62;7.22;;;;;;;11.17;74.80;99851.41;1726577;83;21769;-78
2021/09/04 03:27:18;;;;;;;15.23;5.95;;;;;;;11.20;74.90;99856.52;1742161;81;21824;-77
2021/09/04 03:30:23;;;;;;;16.97;6.50;;;;;;;11.22;74.88;99856.31;1725739;83;21308;-78
2021/09/04 03:33:30;;;;;;;11.43;5.62;;;;;;;11.26;74.88;99850.78;1743121;82;21149;-77
2021/09/04 03:36:37;;;;;;;13.38;5.30;;;;;;;11.32;74.89;99862.85;1726550;83;21320;-78
2021/09/04 03:39:43;;;;;;;12.18;5.55;;;;;;;11.37;74.88;99866.70;1742363;82;21302;-78
2021/09/04 03:42:48;;;;;;;13.38;5.10;;;;;;;11.45;74.92;99871.23;1725744;83;21328;-78
2021/09/04 03:45:57;;;;;;;13.35;5.58;;;;;;;11.54;74.81;99867.34;1743061;81;21156;-78
2021/09/04 03:49:03;;;;;;;12.35;5.37;;;;;;;11.60;74.71;99869.30;1726952;83;21858;-78
2021/09/04 03:52:08;;;;;;;13.50;5.03;;;;;;;11.69;74.69;99864.55;1743035;81;21215;-78
2021/09/04 03:55:14;;;;;;;8.53;5.17;;;;;;;11.76;74.60;99867.70;1726866;83;21324;-78
2021/09/04 03:58:19;;;;;;;9.98;5.33;;;;;;;11.86;74.54;99861.92;1743323;82;21710;-78
2021/09/04 04:01:25;;;;;;;11.68;4.83;;;;;;;11.95;74.37;99855.27;1726685;83;21854;-78
2021/09/04 04:04:31;;;;;;;11.25;5.42;;;;;;;12.07;74.21;99854.73;1743065;82;21177;-77
2021/09/04 04:07:37;;;;;;;21.80;5.08;;;;;;;12.20;73.99;99850.73;1725860;83;21304;-78
2021/09/04 04:10:43;;;;;;;20.50;5.80;;;;;;;12.32;73.65;99850.50;1737972;82;21197;-77
2021/09/04 04:13:49;;;;;;;11.75;6.03;;;;;;;12.43;73.38;99848.61;1772112;81;21263;-77
2021/09/04 04:16:56;;;;;;;13.45;4.70;;;;;;;12.54;73.21;99843.08;1770564;81;21212;-77
2021/09/04 04:20:04;;;;;;;12.50;5.17;;;;;;;12.66;72.85;99845.60;1771557;81;21154;-77
2021/09/04 04:23:09;;;;;;;10.65;5.08;;;;;;;12.78;72.64;99849.46;1770540;81;21339;-78
2021/09/04 04:26:14;;;;;;;19.77;6.55;;;;;;;12.94;72.27;99850.20;1771023;81;21165;-77
2021/09/04 04:29:20;;;;;;;15.70;7.60;;;;;;;13.10;71.84;99854.50;1770664;80;21210;-77
2021/09/04 04:32:25;;;;;;;12.30;6.40;;;;;;;13.24;71.50;99850.27;1770933;81;21228;-78
2021/09/04 04:35:31;;;;;;;9.60;5.08;;;;;;;13.39;71.12;99860.25;1772094;81;21754;-77
2021/09/04 04:38:37;;;;;;;10.43;5.00;;;;;;;13.52;70.78;99858.93;1772042;81;21193;-77
2021/09/04 04:41:43;;;;;;;11.28;5.37;;;;;;;13.70;70.18;99862.48;1770483;81;21844;-78
2021/09/04 04:44:52;;;;;;;19.60;5.12;;;;;;;13.90;69.77;99865.27;1770753;81;21299;-79
2021/09/04 04:47:58;;;;;;;10.60;4.45;;;;;;;14.10;69.01;99858.41;1772007;81;21320;-78
2021/09/04 04:51:03;;;;;;;9.55;4.65;;;;;;;14.31;68.01;99860.98;1771209;81;21307;-78
2021/09/04 04:54:11;;;;;;;9.25;5.33;;;;;;;14.48;67.30;99855.91;1772096;81;21300;-78
2021/09/04 04:57:18;;;;;;;10.30;5.50;;;;;;;14.66;66.93;99863.52;1770595;81;21181;-76
2021/09/04 05:00:25;;;;;;;13.62;5.70;;;;;;;14.83;66.12;99861.48;1771875;81;21149;-76
2021/09/04 05:03:33;;;;;;;7.15;4.15;;;;;;;14.99;65.75;99860.16;1772024;81;21150;-76
2021/09/04 05:06:39;;;;;;;18.75;5.60;;;;;;;15.16;65.22;99862.45;1771989;81;21165;-76
2021/09/04 05:09:43;;;;;;;14.53;5.00;;;;;;;15.27;64.59;99852.97;1772033;81;21335;-77
2021/09/04 05:12:49;;;;;;;11.85;4.67;;;;;;;15.43;64.26;99857.66;1783086;80;21291;-76
2021/09/04 05:15:54;;;;;;;10.43;4.37;;;;;;;15.58;63.93;99860.48;1785728;80;21315;-76
2021/09/04 05:19:01;;;;;;;10.20;4.75;;;;;;;15.73;63.07;99861.59;1785776;80;21207;-76
2021/09/04 05:22:06;;;;;;;10.28;4.58;;;;;;;15.92;62.90;99858.40;1784401;80;21306;-77
2021/09/04 05:25:13;;;;;;;11.60;4.15;;;;;;;16.07;62.37;99856.70;1785649;80;21133;-77
2021/09/04 05:28:20;;;;;;;7.83;4.00;;;;;;;16.26;61.76;99852.10;1785649;80;21141;-78
2021/09/04 05:31:27;;;;;;;11.93;4.00;;;;;;;16.43;60.63;99852.40;1785077;80;21315;-78
2021/09/04 05:34:33;;;;;;;8.33;4.20;;;;;;;16.57;60.12;99849.29;1784293;80;21196;-78
2021/09/04 05:37:38;;;;;;;5.42;3.58;;;;;;;16.70;59.74;99846.08;1784750;80;22252;-78
2021/09/04 05:40:43;;;;;;;7.00;4.37;;;;;;;16.83;59.80;99850.12;1785721;80;21314;-78
2021/09/04 05:43:48;;;;;;;10.48;4.90;;;;;;;16.95;59.29;99844.16;1784072;80;21279;-78
2021/09/04 05:46:54;;;;;;;18.32;5.55;;;;;;;17.08;58.54;99846.78;1785107;80;21471;-78
2021/09/04 05:50:00;;;;;;;8.68;4.47;;;;;;;17.20;58.10;99846.00;1785750;80;21145;-78
2021/09/04 05:53:04;;;;;;;8.90;4.53;;;;;;;17.30;57.47;99851.83;1784315;80;21188;-77
2021/09/04 05:56:10;;;;;;;12.18;5.58;;;;;;;17.40;57.19;99845.75;1785697;80;21169;-78
2021/09/04 05:59:15;;;;;;;7.25;4.70;;;;;;;17.53;56.54;99846.96;1785768;80;21161;-78
2021/09/04 06:02:21;;;;;;;9.93;4.50;;;;;;;17.65;56.56;99847.87;1784748;80;21196;-76
2021/09/04 06:05:29;;;;;;;11.75;4.87;;;;;;;17.84;56.36;99847.32;1785535;80;21645;-77
2021/09/04 06:08:34;;;;;;;13.65;5.35;;;;;;;18.01;54.49;99854.39;1785665;80;21141;-77
2021/09/04 06:11:39;;;;;;;11.05;4.53;;;;;;;18.12;54.80;99846.14;1785152;80;21837;-77
2021/09/04 06:14:45;;;;;;;8.23;4.35;;;;;;;18.25;54.58;99845.61;1778935;80;21144;-77
2021/09/04 06:17:51;;;;;;;12.15;4.45;;;;;;;18.37;54.00;99845.94;1778922;80;21185;-78
2021/09/04 06:20:57;;;;;;;10.00;4.45;;;;;;;18.50;52.32;99850.42;1779888;80;21344;-77
2021/09/04 06:24:03;;;;;;;14.33;4.40;;;;;;;18.59;51.08;99857.30;1778513;80;21207;-78
2021/09/04 06:27:09;;;;;;;8.93;4.58;;;;;;;18.69;51.46;99869.19;1779656;80;21256;-77
2021/09/04 06:30:16;;;;;;;8.33;4.20;;;;;;;18.83;50.87;99882.27;1780118;80;21312;-78
2021/09/04 06:33:21;;;;;;;14.73;5.97;;;;;;;18.90;49.52;99883.81;1778837;80;21296;-77
2021/09/04 06:36:26;;;;;;;7.17;4.95;;;;;;;18.94;48.76;99873.09;1779805;80;21778;-78
2021/09/04 06:39:32;;;;;;;8.83;4.92;;;;;;;19.01;49.04;99880.77;1780188;80;21319;-77
2021/09/04 06:42:37;;;;;;;10.08;4.55;;;;;;;19.12;48.67;99881.28;1778978;80;21304;-78
2021/09/04 06:45:42;;;;;;;9.18;4.60;;;;;;;19.13;47.11;99886.28;1780222;80;21158;-78
2021/09/04 06:48:48;;;;;;;7.65;4.85;;;;;;;19.06;47.26;99879.48;1778413;80;21709;-78
2021/09/04 06:51:54;;;;;;;9.73;4.60;;;;;;;19.01;46.92;99886.30;1778855;80;21165;-77
2021/09/04 06:55:01;;;;;;;14.90;4.45;;;;;;;19.02;47.17;99879.67;1780288;80;21311;-78
2021/09/04 06:58:06;;;;;;;9.45;4.67;;;;;;;19.06;46.88;99889.19;1780312;80;21884;-77
2021/09/04 07:01:12;;;;;;;9.85;4.58;;;;;;;19.13;47.20;99879.34;1780467;80;21853;-77
2021/09/04 07:04:17;;;;;;;12.47;4.20;;;;;;;19.22;46.99;99875.66;1780405;80;21274;-78
2021/09/04 07:07:22;;;;;;;11.33;4.95;;;;;;;19.27;46.73;99882.70;1780351;80;21196;-78
2021/09/04 07:10:28;;;;;;;9.53;4.08;;;;;;;19.33;47.43;99872.02;1780516;80;21142;-78
2021/09/04 07:13:33;;;;;;;8.90;4.28;;;;;;;19.43;46.79;99876.39;1781437;80;21172;-78
2021/09/04 07:16:40;;;;;;;8.70;4.35;;;;;;;19.49;45.97;99874.05;1785360;80;21714;-78
2021/09/04 07:19:49;;;;;;;11.53;4.37;;;;;;;19.51;45.80;99870.47;1784218;80;21280;-78
2021/09/04 07:22:54;;;;;;;7.87;4.50;;;;;;;19.53;45.92;99878.56;1784519;80;21785;-78
2021/09/04 07:26:00;;;;;;;8.48;4.50;;;;;;;19.54;46.15;99871.92;1785734;80;21264;-77
2021/09/04 07:29:06;;;;;;;13.18;4.65;;;;;;;19.66;47.08;99869.42;1784634;80;21196;-77
2021/09/04 07:32:12;;;;;;;8.98;4.40;;;;;;;19.81;45.21;99864.75;1784940;80;21303;-77
2021/09/04 07:35:18;;;;;;;9.80;4.65;;;;;;;19.85;45.25;99865.91;1785830;80;21276;-77
2021/09/04 07:38:26;;;;;;;9.43;4.72;;;;;;;19.88;45.21;99860.42;1785743;80;21330;-76
2021/09/04 07:41:32;;;;;;;11.75;4.45;;;;;;;19.96;45.21;99864.19;1785522;80;21188;-77
2021/09/04 07:44:37;;;;;;;8.28;4.00;;;;;;;20.00;45.44;99855.67;1784468;80;21177;-77
2021/09/04 07:47:42;;;;;;;6.05;4.08;;;;;;;20.05;45.48;99858.53;1784539;80;21227;-76
2021/09/04 07:50:48;;;;;;;12.53;4.58;;;;;;;20.13;45.53;99859.50;1785716;80;22081;-77
2021/09/04 07:53:53;;;;;;;8.88;4.55;;;;;;;20.25;45.18;99848.88;1785808;80;21216;-77
2021/09/04 07:57:00;;;;;;;13.30;5.03;;;;;;;20.42;45.50;99845.58;1785893;80;21213;-77
2021/09/04 08:00:05;;;;;;;7.12;4.22;;;;;;;20.58;45.20;99847.53;1784598;80;21207;-77
2021/09/04 08:03:11;;;;;;;14.15;4.53;;;;;;;20.70;44.71;99844.65;1785504;80;21212;-76
2021/09/04 08:06:16;;;;;;;7.20;4.05;;;;;;;20.80;44.14;99846.22;1785987;80;21303;-77
2021/09/04 08:09:21;;;;;;;10.28;4.35;;;;;;;20.77;43.17;99831.44;1785895;80;21188;-77
2021/09/04 08:12:27;;;;;;;10.32;4.08;;;;;;;20.66;44.35;99833.77;1794677;80;21809;-77
2021/09/04 08:15:34;;;;;;;6.25;3.87;;;;;;;20.75;44.10;99838.33;1791204;80;21315;-77
2021/09/04 08:18:41;;;;;;;12.93;4.03;;;;;;;20.89;44.05;99834.13;1786384;80;21149;-76
2021/09/04 08:21:48;;;;;;;7.87;4.55;;;;;;;20.97;43.18;99831.44;1788073;80;21878;-76
2021/09/04 08:24:53;;;;;;;7.28;4.33;;;;;;;20.98;43.05;99833.95;1787965;80;21267;-77
2021/09/04 08:27:59;;;;;;;9.90;3.77;;;;;;;20.97;43.39;99823.94;1788110;80;21275;-76
2021/09/04 08:31:04;;;;;;;7.47;4.30;;;;;;;21.01;43.81;99821.48;1788190;80;21276;-76
2021/09/04 08:34:08;;;;;;;6.58;3.87;;;;;;;21.15;43.90;99821.41;1787924;80;21182;-76
2021/09/04 08:37:14;;;;;;;7.75;3.47;;;;;;;21.32;43.61;99821.39;1785859;80;21319;-87
2021/09/04 08:40:19;;;;;;;7.20;3.55;;;;;;;21.47;43.36;99813.23;1786879;80;21267;-87
2021/09/04 08:43:24;;;;;;;6.40;3.65;;;;;;;21.61;42.52;99813.67;1788219;80;21244;-86
2021/09/04 08:46:30;;;;;;;5.40;3.95;;;;;;;21.73;41.16;99808.77;1788038;80;21330;-86
2021/09/04 08:49:36;;;;;;;6.40;3.33;;;;;;;21.77;41.61;99812.72;1788058;80;21145;-86
2021/09/04 08:52:42;;;;;;;4.95;3.12;;;;;;;21.88;41.53;99802.56;1787154;80;21287;-87
2021/09/04 08:55:50;;;;;;;5.33;3.75;;;;;;;21.98;40.39;99801.26;1788358;80;21268;-86
2021/09/04 08:58:56;;;;;;;8.48;3.98;;;;;;;22.07;40.75;99796.05;1786892;80;21820;-86
2021/09/04 09:02:03;;;;;;;8.00;3.98;;;;;;;22.15;39.95;99792.24;1786967;80;21299;-87
2021/09/04 09:05:11;;;;;;;5.83;3.90;;;;;;;22.14;38.80;99791.95;1787028;80;21264;-86
2021/09/04 09:08:26;;;;;;;6.50;3.85;;;;;;;22.05;39.72;99789.89;1788362;80;21168;-87
2021/09/04 09:11:32;;;;;;;5.72;4.10;;;;;;;22.10;39.57;99789.38;1786969;80;21236;-87
2021/09/04 09:14:37;;;;;;;14.13;4.87;;;;;;;22.15;38.31;99778.88;1787686;80;21386;-86
2021/09/04 09:17:43;;;;;;;6.72;4.67;;;;;;;22.19;38.36;99781.42;1786812;80;21291;-78
2021/09/04 09:20:54;;;;;;;7.67;4.35;;;;;;;22.23;38.68;99776.16;1787905;80;21298;-75
2021/09/04 09:24:18;;;;;;;7.20;4.35;;;;;;;22.28;38.06;99772.02;1788223;80;21766;-78
2021/09/04 09:27:24;;;;;;;5.53;4.78;;;;;;;22.32;37.51;99778.75;1788022;80;21287;-78
2021/09/04 09:30:39;;;;;;;8.95;4.37;;;;;;;22.39;36.61;99773.21;1788046;80;21275;-78
2021/09/04 09:33:44;;;;;;;10.85;4.53;;;;;;;22.46;37.09;99767.43;1788108;80;21255;-78
2021/09/04 09:37:01;;;;;;;6.05;4.53;;;;;;;22.50;36.90;99778.33;1788025;80;21184;-78
2021/09/04 09:40:07;;;;;;;8.50;4.00;;;;;;;22.51;36.32;99770.80;1786560;80;21150;-78
2021/09/04 09:43:26;;;;;;;7.70;4.53;;;;;;;22.51;35.63;99778.61;1788024;80;21255;-78
2021/09/04 09:46:33;;;;;;;5.92;4.62;;;;;;;22.51;35.77;99771.64;1788039;80;21176;-78
2021/09/04 09:49:47;;;;;;;7.37;4.67;;;;;;;22.51;36.40;99780.00;1788215;80;21255;-78
2021/09/04 09:52:55;;;;;;;7.83;5.55;;;;;;;22.51;36.26;99768.86;1787967;80;21310;-78
2021/09/04 09:56:02;;;;;;;6.83;4.90;;;;;;;22.43;36.43;99761.83;1786607;80;21334;-78
2021/09/04 09:59:09;;;;;;;8.00;4.00;;;;;;;22.36;37.09;99772.37;1787953;80;21306;-78
2021/09/04 10:02:19;;;;;;;7.28;4.70;;;;;;;22.46;36.70;99784.15;1786953;80;21184;-77
2021/09/04 10:05:27;;;;;;;11.22;3.92;;;;;;;22.47;36.62;99771.89;1787255;80;21267;-77
2021/09/04 10:08:34;;;;;;;6.03;4.15;;;;;;;22.53;37.24;99773.59;1787927;80;21912;-77
2021/09/04 10:11:40;;;;;;;5.72;4.40;;;;;;;22.63;36.01;99773.69;1787568;80;21334;-77
2021/09/04 10:14:46;;;;;;;4.45;3.90;;;;;;;22.68;35.76;99762.57;1787774;80;21287;-77
2021/09/04 10:17:53;;;;;;;6.28;4.40;;;;;;;22.73;36.23;99774.31;1794662;80;21823;-78
2021/09/04 10:21:17;;;;;;;4.33;3.70;;;;;;;22.86;35.19;99777.15;1797649;79;21156;-78
2021/09/04 10:24:23;;;;;;;8.20;4.10;;;;;;;22.87;35.19;99774.67;1797918;80;21156;-78
2021/09/04 10:27:43;;;;;;;6.25;3.85;;;;;;;22.78;35.62;99777.69;1799392;80;21322;-78
2021/09/04 10:30:49;;;;;;;7.12;4.25;;;;;;;22.71;35.56;99777.91;1799637;80;21801;-78
2021/09/04 10:33:54;;;;;;;5.37;4.10;;;;;;;22.66;35.61;99765.33;1799678;80;21148;-78
2021/09/04 10:37:11;;;;;;;6.20;4.60;;;;;;;22.68;35.66;99770.94;1779093;80;21211;-78
2021/09/04 10:40:16;;;;;;;5.70;4.15;;;;;;;22.78;35.70;99757.61;1799728;80;21662;-78
2021/09/04 10:43:22;;;;;;;6.05;4.60;;;;;;;23.01;35.73;99766.13;1799544;80;21321;-78
2021/09/04 10:46:27;;;;;;;5.10;3.92;;;;;;;23.15;34.53;99768.70;1799299;80;21274;-78
2021/09/04 10:49:56;;;;;;;5.08;3.72;;;;;;;23.27;34.45;99763.44;1799616;80;21754;-78
2021/09/04 10:53:07;;;;;;;5.28;3.87;;;;;;;23.37;35.89;99760.13;1797940;80;21282;-78
2021/09/04 10:56:28;;;;;;;7.15;3.95;;;;;;;23.60;35.25;99758.80;1798860;80;21266;-78
2021/09/04 11:00:04;;;;;;;7.22;4.12;;;;;;;23.72;35.05;99759.98;1799397;80;21167;-78
2021/09/04 11:03:12;;;;;;;5.10;4.10;;;;;;;23.70;34.92;99757.45;1756342;80;21681;-77
2021/09/04 11:06:28;;;;;;;9.78;4.42;;;;;;;23.64;34.82;99755.77;1799713;80;21313;-77
2021/09/04 11:09:57;;;;;;;6.95;3.60;;;;;;;23.54;34.56;99750.14;1799626;80;21303;-77
2021/09/04 11:13:24;;;;;;;9.18;4.37;;;;;;;23.33;35.24;99752.57;1797912;80;21203;-77
2021/09/04 11:16:45;;;;;;;7.33;4.10;;;;;;;23.09;35.93;99754.98;1786785;80;21320;-77
2021/09/04 11:19:51;;;;;;;5.10;3.90;;;;;;;22.94;36.63;99754.37;1753392;81;21284;-77
2021/09/04 11:22:55;;;;;;;13.60;5.15;;;;;;;22.84;36.94;99766.28;1749058;82;21206;-77
2021/09/04 11:26:00;;;;;;;6.05;3.98;;;;;;;22.73;37.26;99769.29;1749015;82;21515;-77
2021/09/04 11:29:06;;;;;;;5.60;4.08;;;;;;;22.61;37.41;99767.53;1749500;82;21696;-77
2021/09/04 11:32:11;;;;;;;9.98;5.83;;;;;;;22.49;37.61;99761.86;1749325;82;21730;-77
2021/09/04 11:35:18;;;;;;;18.23;5.72;;;;;;;22.27;40.66;99780.94;1748693;82;21219;-86
2021/09/04 11:38:24;;;;;;;15.13;8.83;;;;;;;21.99;41.90;99786.23;1745486;82;21283;-86
2021/09/04 11:41:30;;;;;;;16.52;8.23;;;;;;;21.69;44.04;99810.43;1745199;82;21309;-86
2021/09/04 11:44:36;;;;;;;13.05;7.00;;;;;;;21.33;46.78;99813.33;1746764;82;21728;-86
2021/09/04 11:47:45;;;;;;;15.03;7.22;;;;;;;20.99;48.66;99810.64;1745609;82;21220;-85
2021/09/04 11:50:51;;;;;;;14.83;6.55;;;;;;;20.71;49.74;99826.06;1747164;80;21692;-86
2021/09/04 11:54:08;;;;;;;11.48;6.28;;;;;;;20.41;50.88;99815.55;1745740;82;21226;-86
2021/09/04 11:57:37;;;;;;;18.37;7.62;;;;;;;20.21;52.01;99832.42;1746335;82;21255;-87
2021/09/04 12:00:45;;;;;;;12.95;6.15;;;;;;;20.08;52.64;99825.25;1747059;82;21275;-87
2021/09/04 12:03:52;;;;;;;16.93;8.48;;;;;;;19.97;53.11;99829.78;1746209;82;21764;-87
2021/09/04 12:06:58;;;;;;;14.18;7.55;;;;;;;19.85;53.44;99839.55;1746533;82;21338;-88
2021/09/04 12:10:04;;;;;;;18.60;7.80;;;;;;;19.73;53.91;99839.32;1747070;80;21275;-87
2021/09/04 12:13:12;;;;;;;17.82;7.70;;;;;;;19.59;54.58;99838.73;1745666;82;21777;-87
2021/09/04 12:16:18;;;;;;;20.60;8.45;;;;;;;19.46;55.21;99853.72;1746741;82;21294;-87
2021/09/04 12:19:26;;;;;;;11.53;8.03;;;;;;;19.35;58.79;99851.84;1766062;80;21298;-87
2021/09/04 12:22:40;;;;;;;15.35;7.90;;;;;;;19.14;59.84;99851.38;1785282;80;21192;-87
2021/09/04 12:25:46;;;;;;;14.18;7.47;;;;;;;18.98;60.81;99851.30;1786008;80;21236;-87
2021/09/04 12:28:52;;;;;;;10.00;6.80;;;;;;;18.85;61.59;99842.13;1786314;80;21812;-87
2021/09/04 12:31:57;;;;;;;15.08;7.28;;;;;;;18.83;62.71;99854.56;1785352;80;21298;-87
2021/09/04 12:35:06;;;;;;;14.07;6.53;;;;;;;18.86;60.77;99859.05;1784687;80;21307;-86
2021/09/04 12:38:12;;;;;;;13.62;6.62;;;;;;;18.84;59.89;99857.63;1784696;80;21869;-87
2021/09/04 12:41:20;;;;;;;10.70;5.90;;;;;;;18.81;59.08;99857.55;1786041;80;21311;-87
2021/09/04 12:44:24;;;;;;;15.00;6.65;;;;;;;18.83;59.23;99861.48;1786071;80;21169;-86
2021/09/04 12:47:31;;;;;;;11.85;7.22;;;;;;;18.89;58.66;99861.35;1784862;80;21857;-86
2021/09/04 12:50:36;;;;;;;15.15;7.65;;;;;;;18.95;58.26;99868.39;1786010;80;21197;-87
2021/09/04 12:53:42;;;;;;;14.28;7.67;;;;;;;18.96;58.13;99869.56;1785998;80;21161;-86
2021/09/04 12:56:49;;;;;;;19.02;7.55;;;;;;;18.95;58.47;99858.70;1784490;80;21328;-87
2021/09/04 13:00:13;;;;;;;12.15;7.15;;;;;;;18.95;58.70;99868.39;1786175;80;21158;-87
2021/09/04 13:03:19;;;;;;;12.47;7.53;;;;;;;18.90;58.63;99876.05;1786034;80;21287;-87
2021/09/04 13:06:25;;;;;;;14.90;8.98;;;;;;;18.80;59.01;99871.66;1785980;80;21813;-87
2021/09/04 13:09:30;;;;;;;18.15;9.50;;;;;;;18.75;58.60;99877.08;1785874;80;21264;-86
2021/09/04 13:12:37;;;;;;;18.02;11.68;;;;;;;18.67;58.48;99883.77;1784726;80;21176;-85
2021/09/04 13:15:42;;;;;;;19.85;12.30;;;;;;;18.62;58.48;99880.34;1786264;80;21266;-85
2021/09/04 13:18:48;;;;;;;21.17;14.45;;;;;;;18.64;58.91;99873.20;1784976;80;21239;-86
2021/09/04 13:21:55;;;;;;;31.12;16.35;;;;;;;18.73;59.04;99872.33;1770984;81;21165;-87
2021/09/04 13:25:00;;;;;;;28.38;17.57;;;;;;;18.82;58.89;99883.33;1772369;81;21165;-87
2021/09/04 13:28:08;;;;;;;22.55;13.90;;;;;;;18.87;58.55;99882.93;1770982;81;21224;-86
2021/09/04 13:31:14;;;;;;;23.10;13.08;;;;;;;18.90;58.39;99881.05;1772271;81;21320;-86
2021/09/04 13:34:19;;;;;;;20.72;12.37;;;;;;;18.92;57.97;99890.52;1771734;81;21311;-85
2021/09/04 13:37:25;;;;;;;17.87;9.85;;;;;;;18.96;57.56;99895.89;1771460;79;21307;-87
2021/09/04 13:40:30;;;;;;;17.15;8.53;;;;;;;19.03;56.47;99892.44;1772426;81;21276;-87
2021/09/04 13:43:36;;;;;;;10.00;7.62;;;;;;;19.15;55.52;99891.89;1772380;81;21271;-86
2021/09/04 13:46:42;;;;;;;20.50;9.55;;;;;;;19.29;55.39;99882.78;1772000;81;21809;-87
2021/09/04 13:49:47;;;;;;;15.53;10.05;;;;;;;19.44;54.55;99897.52;1771469;81;21742;-87
2021/09/04 13:52:53;;;;;;;9.78;6.35;;;;;;;19.52;53.59;99895.72;1771245;81;21256;-85
2021/09/04 13:55:58;;;;;;;10.30;6.85;;;;;;;19.54;52.57;99900.50;1772449;81;21280;-86
2021/09/04 13:59:03;;;;;;;9.05;6.15;;;;;;;19.54;51.74;99907.98;1771492;81;21300;-85
2021/09/04 14:02:08;;;;;;;11.15;6.72;;;;;;;19.51;50.97;99914.84;1771617;81;21323;-86
2021/09/04 14:05:16;;;;;;;8.25;6.03;;;;;;;19.44;50.00;99908.61;1771703;81;21320;-86
2021/09/04 14:08:23;;;;;;;10.10;5.80;;;;;;;19.39;50.48;99916.27;1771137;80;21161;-86
2021/09/04 14:11:28;;;;;;;9.73;5.28;;;;;;;19.42;49.90;99912.16;1772146;81;21772;-86
2021/09/04 14:14:34;;;;;;;9.45;5.03;;;;;;;19.45;50.10;99916.38;1772107;81;21727;-87
2021/09/04 14:17:41;;;;;;;7.90;4.33;;;;;;;19.47;49.21;99924.73;1770940;81;21196;-86
2021/09/04 14:20:47;;;;;;;6.30;4.03;;;;;;;19.48;48.37;99933.39;1771737;80;21161;-86
2021/09/04 14:23:53;;;;;;;10.78;4.37;;;;;;;19.37;46.21;99936.45;1772373;81;21193;-86
2021/09/04 14:26:59;;;;;;;7.65;4.58;;;;;;;19.31;46.10;99925.50;1770660;81;21236;-86
2021/09/04 14:30:05;;;;;;;12.82;8.10;;;;;;;19.28;46.03;99941.23;1770303;81;21173;-85
2021/09/04 14:33:10;;;;;;;15.23;8.78;;;;;;;19.22;45.49;99932.50;1770559;81;21334;-85